EGXT

RAF Wittering Airport

Wittering, United Kingdom
METAR EGXT 092150Z AUTO 26012KT 9999 BKN037/// 06/04 Q1019
Observed Flight Rules
Dec-9 @ 21:50 UTC (21 minutes ago) Visual Flight Rules
Wind Visibility Clouds
260° at 12 knots 10,000+ meters
  • Broken at 3,700' AGL
Temperatures Readings
Current 6°C / 43°F
Dewpoint 4°C / 39°F
Humidity 87%
Altimeter 30.09" Hg
Pressure 1019 hPa
Elevation 84
METAR EGXT 092150Z AUTO 26012KT 9999 BKN037/// 06/04 Q1019
Observed Flight Rules
Dec-9 @ 21:50 UTC
(21 minutes ago)
VFR
Wind Visibility
260° at 12 knots 10,000+ meters
Clouds
  • Broken at 3,700' AGL
Temperature Dewpoint
6°C / 43°F 4°C / 39°F
Humidity Altimeter Pressure
87% 30.09" Hg 1019 hPa